sensor_id;sensor_type;location;lat;lon;timestamp;P1;durP1;ratioP1;P2;durP2;ratioP2
20040;SDS011;10181;48.072;9.884;2022-09-13T00:00:26;2.70;;;2.60;;
20040;SDS011;10181;48.072;9.884;2022-09-13T00:02:51;2.67;;;2.57;;
20040;SDS011;10181;48.072;9.884;2022-09-13T00:05:17;3.00;;;2.80;;
20040;SDS011;10181;48.072;9.884;2022-09-13T00:07:43;2.37;;;2.27;;
20040;SDS011;10181;48.072;9.884;2022-09-13T00:10:08;3.10;;;2.87;;
20040;SDS011;10181;48.072;9.884;2022-09-13T00:12:34;2.43;;;2.33;;
20040;SDS011;10181;48.072;9.884;2022-09-13T00:14:59;2.50;;;2.40;;
20040;SDS011;10181;48.072;9.884;2022-09-13T00:17:25;2.40;;;2.30;;
20040;SDS011;10181;48.072;9.884;2022-09-13T00:19:51;2.23;;;2.13;;
20040;SDS011;10181;48.072;9.884;2022-09-13T00:22:17;2.20;;;2.10;;
20040;SDS011;10181;48.072;9.884;2022-09-13T00:24:42;2.23;;;2.13;;
20040;SDS011;10181;48.072;9.884;2022-09-13T00:27:08;2.77;;;2.67;;
20040;SDS011;10181;48.072;9.884;2022-09-13T00:29:35;2.17;;;2.07;;
20040;SDS011;10181;48.072;9.884;2022-09-13T00:32:00;2.33;;;2.23;;
20040;SDS011;10181;48.072;9.884;2022-09-13T00:34:26;2.27;;;2.17;;
20040;SDS011;10181;48.072;9.884;2022-09-13T00:36:52;2.80;;;2.60;;
20040;SDS011;10181;48.072;9.884;2022-09-13T00:39:17;2.30;;;2.20;;
20040;SDS011;10181;48.072;9.884;2022-09-13T00:41:43;2.43;;;2.33;;
20040;SDS011;10181;48.072;9.884;2022-09-13T00:47:12;2.10;;;2.00;;
20040;SDS011;10181;48.072;9.884;2022-09-13T00:49:39;2.33;;;2.23;;
20040;SDS011;10181;48.072;9.884;2022-09-13T00:52:07;2.23;;;2.13;;
20040;SDS011;10181;48.072;9.884;2022-09-13T00:54:41;3.10;;;2.40;;
20040;SDS011;10181;48.072;9.884;2022-09-13T00:57:23;2.50;;;2.40;;
20040;SDS011;10181;48.072;9.884;2022-09-13T00:59:55;1.80;;;1.70;;
20040;SDS011;10181;48.072;9.884;2022-09-13T01:02:34;2.30;;;2.10;;
20040;SDS011;10181;48.072;9.884;2022-09-13T01:05:00;2.07;;;1.97;;
20040;SDS011;10181;48.072;9.884;2022-09-13T01:07:27;2.10;;;2.00;;
20040;SDS011;10181;48.072;9.884;2022-09-13T01:09:52;2.40;;;2.30;;
20040;SDS011;10181;48.072;9.884;2022-09-13T01:12:24;2.40;;;2.30;;
20040;SDS011;10181;48.072;9.884;2022-09-13T01:14:58;2.50;;;2.40;;
20040;SDS011;10181;48.072;9.884;2022-09-13T01:17:26;2.63;;;2.43;;
20040;SDS011;10181;48.072;9.884;2022-09-13T01:19:53;3.13;;;2.93;;
20040;SDS011;10181;48.072;9.884;2022-09-13T01:30:58;2.70;;;2.60;;
20040;SDS011;10181;48.072;9.884;2022-09-13T01:39:04;2.90;;;2.70;;
20040;SDS011;10181;48.072;9.884;2022-09-13T01:49:54;2.50;;;2.40;;
20040;SDS011;10181;48.072;9.884;2022-09-13T01:53:07;2.43;;;2.33;;
20040;SDS011;10181;48.072;9.884;2022-09-13T01:55:23;2.90;;;2.80;;
20040;SDS011;10181;48.072;9.884;2022-09-13T02:00:23;2.80;;;2.60;;
20040;SDS011;10181;48.072;9.884;2022-09-13T02:02:54;2.60;;;2.50;;
20040;SDS011;10181;48.072;9.884;2022-09-13T02:05:30;2.77;;;2.57;;
20040;SDS011;10181;48.072;9.884;2022-09-13T02:08:06;2.20;;;2.10;;
20040;SDS011;10181;48.072;9.884;2022-09-13T02:10:52;2.47;;;2.37;;
20040;SDS011;10181;48.072;9.884;2022-09-13T02:13:31;2.30;;;2.20;;
20040;SDS011;10181;48.072;9.884;2022-09-13T02:16:01;3.10;;;2.90;;
20040;SDS011;10181;48.072;9.884;2022-09-13T02:18:34;2.30;;;2.20;;
20040;SDS011;10181;48.072;9.884;2022-09-13T02:21:06;2.43;;;2.33;;
20040;SDS011;10181;48.072;9.884;2022-09-13T02:23:40;3.20;;;3.10;;
20040;SDS011;10181;48.072;9.884;2022-09-13T02:26:20;5.10;;;4.90;;
20040;SDS011;10181;48.072;9.884;2022-09-13T02:28:48;5.90;;;5.70;;
20040;SDS011;10181;48.072;9.884;2022-09-13T02:31:18;10.90;;;10.60;;
20040;SDS011;10181;48.072;9.884;2022-09-13T02:33:51;16.93;;;16.33;;
20040;SDS011;10181;48.072;9.884;2022-09-13T02:36:44;22.77;;;21.97;;
20040;SDS011;10181;48.072;9.884;2022-09-13T02:39:13;31.87;;;30.67;;
20040;SDS011;10181;48.072;9.884;2022-09-13T02:52:47;59.73;;;57.37;;
20040;SDS011;10181;48.072;9.884;2022-09-13T03:01:16;110.30;;;105.93;;
20040;SDS011;10181;48.072;9.884;2022-09-13T03:03:41;119.70;;;115.07;;
20040;SDS011;10181;48.072;9.884;2022-09-13T03:06:08;95.97;;;92.17;;
20040;SDS011;10181;48.072;9.884;2022-09-13T03:08:34;76.00;;;72.93;;
20040;SDS011;10181;48.072;9.884;2022-09-13T03:27:37;128.17;;;123.20;;
20040;SDS011;10181;48.072;9.884;2022-09-13T03:30:31;139.60;;;134.20;;
20040;SDS011;10181;48.072;9.884;2022-09-13T03:35:53;137.53;;;132.27;;
20040;SDS011;10181;48.072;9.884;2022-09-13T03:41:17;58.80;;;56.50;;
20040;SDS011;10181;48.072;9.884;2022-09-13T03:43:50;70.70;;;67.90;;
20040;SDS011;10181;48.072;9.884;2022-09-13T03:46:29;84.70;;;81.37;;
20040;SDS011;10181;48.072;9.884;2022-09-13T03:49:11;124.13;;;119.40;;
20040;SDS011;10181;48.072;9.884;2022-09-13T03:51:39;171.53;;;165.07;;
20040;SDS011;10181;48.072;9.884;2022-09-13T03:54:08;170.77;;;164.30;;
20040;SDS011;10181;48.072;9.884;2022-09-13T03:56:39;171.17;;;164.57;;
20040;SDS011;10181;48.072;9.884;2022-09-13T03:59:05;174.87;;;168.23;;
20040;SDS011;10181;48.072;9.884;2022-09-13T04:01:30;142.03;;;136.57;;
20040;SDS011;10181;48.072;9.884;2022-09-13T04:03:56;76.63;;;73.57;;
20040;SDS011;10181;48.072;9.884;2022-09-13T04:06:21;67.73;;;65.10;;
20040;SDS011;10181;48.072;9.884;2022-09-13T04:08:47;76.50;;;73.50;;
20040;SDS011;10181;48.072;9.884;2022-09-13T04:11:13;107.00;;;102.83;;
20040;SDS011;10181;48.072;9.884;2022-09-13T04:13:38;105.83;;;101.77;;
20040;SDS011;10181;48.072;9.884;2022-09-13T04:16:05;92.17;;;88.63;;
20040;SDS011;10181;48.072;9.884;2022-09-13T04:18:32;105.43;;;101.43;;
20040;SDS011;10181;48.072;9.884;2022-09-13T04:20:58;127.20;;;122.33;;
20040;SDS011;10181;48.072;9.884;2022-09-13T04:23:26;188.93;;;181.60;;
20040;SDS011;10181;48.072;9.884;2022-09-13T04:25:53;221.37;;;213.20;;
20040;SDS011;10181;48.072;9.884;2022-09-13T04:28:19;305.10;;;288.20;;
20040;SDS011;10181;48.072;9.884;2022-09-13T04:30:46;285.37;;;271.10;;
20040;SDS011;10181;48.072;9.884;2022-09-13T04:33:13;228.20;;;218.30;;
20040;SDS011;10181;48.072;9.884;2022-09-13T04:35:41;179.07;;;171.77;;
20040;SDS011;10181;48.072;9.884;2022-09-13T04:38:07;178.17;;;170.77;;
20040;SDS011;10181;48.072;9.884;2022-09-13T04:40:33;173.73;;;166.73;;
20040;SDS011;10181;48.072;9.884;2022-09-13T04:42:59;129.43;;;124.27;;
20040;SDS011;10181;48.072;9.884;2022-09-13T04:45:26;66.10;;;63.40;;
20040;SDS011;10181;48.072;9.884;2022-09-13T04:47:52;28.27;;;27.20;;
20040;SDS011;10181;48.072;9.884;2022-09-13T04:50:19;17.70;;;17.00;;
20040;SDS011;10181;48.072;9.884;2022-09-13T04:52:45;45.43;;;43.33;;
20040;SDS011;10181;48.072;9.884;2022-09-13T04:55:11;100.47;;;96.40;;
20040;SDS011;10181;48.072;9.884;2022-09-13T04:57:38;180.80;;;173.60;;
20040;SDS011;10181;48.072;9.884;2022-09-13T05:00:05;217.73;;;209.63;;
20040;SDS011;10181;48.072;9.884;2022-09-13T05:02:32;220.80;;;212.67;;
20040;SDS011;10181;48.072;9.884;2022-09-13T05:04:57;222.87;;;214.67;;
20040;SDS011;10181;48.072;9.884;2022-09-13T05:07:23;173.10;;;166.20;;
20040;SDS011;10181;48.072;9.884;2022-09-13T05:09:49;131.97;;;126.80;;
20040;SDS011;10181;48.072;9.884;2022-09-13T05:12:14;91.73;;;88.03;;
20040;SDS011;10181;48.072;9.884;2022-09-13T05:14:40;74.67;;;71.63;;
20040;SDS011;10181;48.072;9.884;2022-09-13T05:17:06;109.57;;;105.17;;
20040;SDS011;10181;48.072;9.884;2022-09-13T05:19:32;158.60;;;152.43;;
20040;SDS011;10181;48.072;9.884;2022-09-13T05:21:57;188.53;;;181.20;;
20040;SDS011;10181;48.072;9.884;2022-09-13T05:24:23;190.27;;;182.90;;
20040;SDS011;10181;48.072;9.884;2022-09-13T05:26:49;162.53;;;156.13;;
20040;SDS011;10181;48.072;9.884;2022-09-13T05:29:14;68.97;;;66.17;;
20040;SDS011;10181;48.072;9.884;2022-09-13T05:31:41;24.80;;;23.77;;
20040;SDS011;10181;48.072;9.884;2022-09-13T05:34:11;19.80;;;19.00;;
20040;SDS011;10181;48.072;9.884;2022-09-13T05:36:42;17.20;;;16.57;;
20040;SDS011;10181;48.072;9.884;2022-09-13T05:39:12;18.03;;;17.37;;
20040;SDS011;10181;48.072;9.884;2022-09-13T05:41:39;45.73;;;43.83;;
20040;SDS011;10181;48.072;9.884;2022-09-13T05:44:05;169.20;;;162.43;;
20040;SDS011;10181;48.072;9.884;2022-09-13T05:46:31;257.40;;;247.60;;
20040;SDS011;10181;48.072;9.884;2022-09-13T05:48:57;57.03;;;54.63;;
20040;SDS011;10181;48.072;9.884;2022-09-13T05:51:23;4.17;;;3.97;;
20040;SDS011;10181;48.072;9.884;2022-09-13T05:53:50;4.50;;;4.40;;
20040;SDS011;10181;48.072;9.884;2022-09-13T05:56:20;3.13;;;2.93;;
20040;SDS011;10181;48.072;9.884;2022-09-13T05:58:51;2.43;;;2.23;;
20040;SDS011;10181;48.072;9.884;2022-09-13T06:01:19;3.47;;;3.27;;
20040;SDS011;10181;48.072;9.884;2022-09-13T06:03:47;4.37;;;4.27;;
20040;SDS011;10181;48.072;9.884;2022-09-13T06:06:16;6.50;;;6.30;;
20040;SDS011;10181;48.072;9.884;2022-09-13T06:08:43;3.87;;;3.77;;
20040;SDS011;10181;48.072;9.884;2022-09-13T06:11:09;4.60;;;4.50;;
20040;SDS011;10181;48.072;9.884;2022-09-13T06:13:37;4.50;;;4.40;;
20040;SDS011;10181;48.072;9.884;2022-09-13T06:16:04;2.63;;;2.53;;
20040;SDS011;10181;48.072;9.884;2022-09-13T06:18:32;2.77;;;2.67;;
20040;SDS011;10181;48.072;9.884;2022-09-13T06:21:01;2.80;;;2.70;;
20040;SDS011;10181;48.072;9.884;2022-09-13T06:23:29;2.77;;;2.67;;
20040;SDS011;10181;48.072;9.884;2022-09-13T06:25:58;3.73;;;3.63;;
20040;SDS011;10181;48.072;9.884;2022-09-13T06:28:32;23.20;;;22.40;;
20040;SDS011;10181;48.072;9.884;2022-09-13T06:30:59;27.17;;;26.27;;
20040;SDS011;10181;48.072;9.884;2022-09-13T06:33:25;24.90;;;24.10;;
20040;SDS011;10181;48.072;9.884;2022-09-13T06:35:51;6.87;;;6.67;;
20040;SDS011;10181;48.072;9.884;2022-09-13T06:38:17;40.47;;;38.87;;
20040;SDS011;10181;48.072;9.884;2022-09-13T06:40:42;68.93;;;66.23;;
20040;SDS011;10181;48.072;9.884;2022-09-13T06:43:08;91.60;;;88.23;;
20040;SDS011;10181;48.072;9.884;2022-09-13T06:45:35;60.27;;;57.97;;
20040;SDS011;10181;48.072;9.884;2022-09-13T06:48:01;32.03;;;30.90;;
20040;SDS011;10181;48.072;9.884;2022-09-13T06:50:27;7.50;;;7.27;;
20040;SDS011;10181;48.072;9.884;2022-09-13T06:52:55;24.50;;;23.70;;
20040;SDS011;10181;48.072;9.884;2022-09-13T06:55:20;29.03;;;27.93;;
20040;SDS011;10181;48.072;9.884;2022-09-13T06:57:47;61.43;;;59.10;;
20040;SDS011;10181;48.072;9.884;2022-09-13T07:00:13;86.53;;;83.30;;
20040;SDS011;10181;48.072;9.884;2022-09-13T07:02:39;82.43;;;79.30;;
20040;SDS011;10181;48.072;9.884;2022-09-13T07:05:05;32.77;;;31.57;;
20040;SDS011;10181;48.072;9.884;2022-09-13T07:07:31;43.43;;;41.87;;
20040;SDS011;10181;48.072;9.884;2022-09-13T07:09:56;69.77;;;67.13;;
20040;SDS011;10181;48.072;9.884;2022-09-13T07:12:22;38.47;;;37.00;;
20040;SDS011;10181;48.072;9.884;2022-09-13T07:14:47;29.77;;;28.67;;
20040;SDS011;10181;48.072;9.884;2022-09-13T07:17:13;4.53;;;4.33;;
20040;SDS011;10181;48.072;9.884;2022-09-13T07:19:39;4.60;;;4.50;;
20040;SDS011;10181;48.072;9.884;2022-09-13T07:22:06;4.30;;;4.20;;
20040;SDS011;10181;48.072;9.884;2022-09-13T07:24:31;4.83;;;4.43;;
20040;SDS011;10181;48.072;9.884;2022-09-13T07:26:57;3.13;;;3.03;;
20040;SDS011;10181;48.072;9.884;2022-09-13T07:29:23;5.13;;;4.93;;
20040;SDS011;10181;48.072;9.884;2022-09-13T07:31:49;3.70;;;3.60;;
20040;SDS011;10181;48.072;9.884;2022-09-13T07:34:17;4.07;;;3.97;;
20040;SDS011;10181;48.072;9.884;2022-09-13T07:36:45;4.03;;;3.87;;
20040;SDS011;10181;48.072;9.884;2022-09-13T07:39:12;4.10;;;4.00;;
20040;SDS011;10181;48.072;9.884;2022-09-13T07:41:39;3.87;;;3.77;;
20040;SDS011;10181;48.072;9.884;2022-09-13T07:44:04;4.60;;;4.40;;
20040;SDS011;10181;48.072;9.884;2022-09-13T07:46:33;4.10;;;3.90;;
20040;SDS011;10181;48.072;9.884;2022-09-13T07:49:04;5.00;;;4.80;;
20040;SDS011;10181;48.072;9.884;2022-09-13T07:51:34;5.57;;;5.40;;
20040;SDS011;10181;48.072;9.884;2022-09-13T07:54:02;5.27;;;5.17;;
20040;SDS011;10181;48.072;9.884;2022-09-13T07:56:30;5.17;;;4.97;;
20040;SDS011;10181;48.072;9.884;2022-09-13T07:58:58;4.13;;;4.00;;
20040;SDS011;10181;48.072;9.884;2022-09-13T08:01:44;4.33;;;4.23;;
20040;SDS011;10181;48.072;9.884;2022-09-13T08:04:12;5.30;;;5.10;;
20040;SDS011;10181;48.072;9.884;2022-09-13T08:06:41;5.07;;;4.83;;
20040;SDS011;10181;48.072;9.884;2022-09-13T08:09:08;6.63;;;6.43;;
20040;SDS011;10181;48.072;9.884;2022-09-13T08:11:35;8.53;;;8.23;;
20040;SDS011;10181;48.072;9.884;2022-09-13T08:14:01;9.80;;;9.50;;
20040;SDS011;10181;48.072;9.884;2022-09-13T08:16:28;10.57;;;10.27;;
20040;SDS011;10181;48.072;9.884;2022-09-13T08:18:55;10.23;;;9.93;;
20040;SDS011;10181;48.072;9.884;2022-09-13T08:21:23;7.33;;;7.13;;
20040;SDS011;10181;48.072;9.884;2022-09-13T08:23:49;9.33;;;9.03;;
20040;SDS011;10181;48.072;9.884;2022-09-13T08:26:18;18.37;;;17.73;;
20040;SDS011;10181;48.072;9.884;2022-09-13T08:28:44;27.07;;;26.13;;
20040;SDS011;10181;48.072;9.884;2022-09-13T08:31:10;7.40;;;7.13;;
20040;SDS011;10181;48.072;9.884;2022-09-13T08:33:41;8.53;;;8.23;;
20040;SDS011;10181;48.072;9.884;2022-09-13T08:36:08;8.53;;;8.23;;
20040;SDS011;10181;48.072;9.884;2022-09-13T08:38:33;6.53;;;6.33;;
20040;SDS011;10181;48.072;9.884;2022-09-13T08:41:03;8.03;;;7.83;;
20040;SDS011;10181;48.072;9.884;2022-09-13T08:44:06;9.57;;;9.23;;
20040;SDS011;10181;48.072;9.884;2022-09-13T08:47:19;9.00;;;8.70;;
20040;SDS011;10181;48.072;9.884;2022-09-13T09:04:05;7.95;;;7.75;;
20040;SDS011;10181;48.072;9.884;2022-09-13T09:06:32;7.70;;;7.40;;
20040;SDS011;10181;48.072;9.884;2022-09-13T09:09:07;5.70;;;5.47;;
20040;SDS011;10181;48.072;9.884;2022-09-13T09:11:40;7.25;;;6.90;;
20040;SDS011;10181;48.072;9.884;2022-09-13T09:14:18;8.83;;;8.53;;
20040;SDS011;10181;48.072;9.884;2022-09-13T09:16:57;7.43;;;7.20;;
20040;SDS011;10181;48.072;9.884;2022-09-13T09:20:08;6.03;;;5.82;;
20040;SDS011;10181;48.072;9.884;2022-09-13T09:23:25;12.13;;;11.73;;
20040;SDS011;10181;48.072;9.884;2022-09-13T09:26:15;5.78;;;5.47;;
20040;SDS011;10181;48.072;9.884;2022-09-13T09:28:46;10.90;;;10.57;;
20040;SDS011;10181;48.072;9.884;2022-09-13T09:39:41;3.92;;;3.80;;
20040;SDS011;10181;48.072;9.884;2022-09-13T09:42:14;3.92;;;3.83;;
20040;SDS011;10181;48.072;9.884;2022-09-13T09:44:51;3.63;;;3.53;;
20040;SDS011;10181;48.072;9.884;2022-09-13T09:47:24;3.75;;;3.65;;
20040;SDS011;10181;48.072;9.884;2022-09-13T09:49:59;9.45;;;9.18;;
20040;SDS011;10181;48.072;9.884;2022-09-13T09:58:12;4.30;;;4.20;;
20040;SDS011;10181;48.072;9.884;2022-09-13T10:00:49;3.15;;;3.05;;
20040;SDS011;10181;48.072;9.884;2022-09-13T10:03:26;4.90;;;4.78;;
20040;SDS011;10181;48.072;9.884;2022-09-13T10:09:03;16.05;;;15.55;;
20040;SDS011;10181;48.072;9.884;2022-09-13T10:11:53;16.38;;;15.88;;
20040;SDS011;10181;48.072;9.884;2022-09-13T10:20:01;9.95;;;9.65;;
20040;SDS011;10181;48.072;9.884;2022-09-13T10:22:44;8.85;;;8.55;;
20040;SDS011;10181;48.072;9.884;2022-09-13T10:25:29;4.82;;;4.63;;
20040;SDS011;10181;48.072;9.884;2022-09-13T10:27:56;8.30;;;7.88;;
20040;SDS011;10181;48.072;9.884;2022-09-13T10:32:55;61.22;;;58.92;;
20040;SDS011;10181;48.072;9.884;2022-09-13T10:35:21;19.98;;;19.33;;
20040;SDS011;10181;48.072;9.884;2022-09-13T10:37:48;6.63;;;6.43;;
20040;SDS011;10181;48.072;9.884;2022-09-13T10:40:21;12.63;;;12.20;;
20040;SDS011;10181;48.072;9.884;2022-09-13T10:42:53;34.33;;;33.03;;
20040;SDS011;10181;48.072;9.884;2022-09-13T10:45:25;46.05;;;44.40;;
20040;SDS011;10181;48.072;9.884;2022-09-13T10:47:54;20.63;;;19.85;;
20040;SDS011;10181;48.072;9.884;2022-09-13T10:52:52;6.20;;;6.00;;
20040;SDS011;10181;48.072;9.884;2022-09-13T10:57:48;7.95;;;7.72;;
20040;SDS011;10181;48.072;9.884;2022-09-13T11:00:18;10.13;;;9.82;;
20040;SDS011;10181;48.072;9.884;2022-09-13T11:05:57;11.95;;;11.55;;
20040;SDS011;10181;48.072;9.884;2022-09-13T11:08:40;7.57;;;7.38;;
20040;SDS011;10181;48.072;9.884;2022-09-13T11:11:14;7.25;;;6.85;;
20040;SDS011;10181;48.072;9.884;2022-09-13T11:30:14;9.63;;;9.32;;
20040;SDS011;10181;48.072;9.884;2022-09-13T11:36:31;33.63;;;32.45;;
20040;SDS011;10181;48.072;9.884;2022-09-13T11:46:40;16.98;;;16.40;;
20040;SDS011;10181;48.072;9.884;2022-09-13T11:49:33;17.08;;;16.50;;
20040;SDS011;10181;48.072;9.884;2022-09-13T11:57:33;13.15;;;12.75;;
20040;SDS011;10181;48.072;9.884;2022-09-13T12:00:05;9.95;;;9.63;;
20040;SDS011;10181;48.072;9.884;2022-09-13T12:02:45;7.47;;;7.28;;
20040;SDS011;10181;48.072;9.884;2022-09-13T12:05:22;34.28;;;33.05;;
20040;SDS011;10181;48.072;9.884;2022-09-13T12:10:51;16.92;;;16.42;;
20040;SDS011;10181;48.072;9.884;2022-09-13T12:13:40;55.00;;;52.92;;
20040;SDS011;10181;48.072;9.884;2022-09-13T12:16:32;25.15;;;24.27;;
20040;SDS011;10181;48.072;9.884;2022-09-13T12:19:19;10.13;;;9.82;;
20040;SDS011;10181;48.072;9.884;2022-09-13T12:21:54;29.65;;;28.55;;
20040;SDS011;10181;48.072;9.884;2022-09-13T12:25:06;44.75;;;43.00;;
20040;SDS011;10181;48.072;9.884;2022-09-13T12:27:27;44.67;;;42.72;;
20040;SDS011;10181;48.072;9.884;2022-09-13T12:30:06;12.20;;;11.73;;
20040;SDS011;10181;48.072;9.884;2022-09-13T12:32:39;13.38;;;12.98;;
20040;SDS011;10181;48.072;9.884;2022-09-13T12:48:24;102.50;;;98.50;;
20040;SDS011;10181;48.072;9.884;2022-09-13T12:51:13;10.73;;;10.35;;
20040;SDS011;10181;48.072;9.884;2022-09-13T13:01:54;13.35;;;12.88;;
20040;SDS011;10181;48.072;9.884;2022-09-13T13:04:22;10.52;;;10.23;;
20040;SDS011;10181;48.072;9.884;2022-09-13T13:12:09;8.32;;;8.02;;
20040;SDS011;10181;48.072;9.884;2022-09-13T13:23:24;7.93;;;7.68;;
20040;SDS011;10181;48.072;9.884;2022-09-13T13:36:21;20.90;;;20.15;;
20040;SDS011;10181;48.072;9.884;2022-09-13T13:38:53;31.73;;;30.63;;
20040;SDS011;10181;48.072;9.884;2022-09-13T13:43:57;36.25;;;34.95;;
20040;SDS011;10181;48.072;9.884;2022-09-13T13:46:47;38.22;;;36.85;;
20040;SDS011;10181;48.072;9.884;2022-09-13T14:00:11;62.20;;;59.67;;
20040;SDS011;10181;48.072;9.884;2022-09-13T14:05:12;13.30;;;12.77;;
20040;SDS011;10181;48.072;9.884;2022-09-13T14:18:47;7.40;;;7.18;;
20040;SDS011;10181;48.072;9.884;2022-09-13T14:21:29;5.80;;;5.43;;
20040;SDS011;10181;48.072;9.884;2022-09-13T14:24:12;5.30;;;5.10;;
20040;SDS011;10181;48.072;9.884;2022-09-13T14:26:46;5.13;;;4.93;;
20040;SDS011;10181;48.072;9.884;2022-09-13T14:29:20;4.65;;;4.53;;
20040;SDS011;10181;48.072;9.884;2022-09-13T14:31:48;5.65;;;5.45;;
20040;SDS011;10181;48.072;9.884;2022-09-13T14:34:20;5.35;;;4.97;;
20040;SDS011;10181;48.072;9.884;2022-09-13T14:36:56;5.15;;;4.95;;
20040;SDS011;10181;48.072;9.884;2022-09-13T14:39:24;5.45;;;5.25;;
20040;SDS011;10181;48.072;9.884;2022-09-13T14:44:46;5.30;;;5.15;;
20040;SDS011;10181;48.072;9.884;2022-09-13T14:47:20;5.05;;;4.95;;
20040;SDS011;10181;48.072;9.884;2022-09-13T14:49:48;9.48;;;9.20;;
20040;SDS011;10181;48.072;9.884;2022-09-13T14:52:25;14.90;;;14.48;;
20040;SDS011;10181;48.072;9.884;2022-09-13T14:55:13;16.38;;;15.90;;
20040;SDS011;10181;48.072;9.884;2022-09-13T14:57:44;17.58;;;16.98;;
20040;SDS011;10181;48.072;9.884;2022-09-13T15:02:38;9.13;;;8.90;;
20040;SDS011;10181;48.072;9.884;2022-09-13T15:05:10;9.07;;;8.77;;
20040;SDS011;10181;48.072;9.884;2022-09-13T15:07:38;13.48;;;13.07;;
20040;SDS011;10181;48.072;9.884;2022-09-13T15:23:32;7.18;;;6.88;;
20040;SDS011;10181;48.072;9.884;2022-09-13T15:26:18;7.18;;;6.97;;
20040;SDS011;10181;48.072;9.884;2022-09-13T15:28:50;7.63;;;7.43;;
20040;SDS011;10181;48.072;9.884;2022-09-13T15:31:24;7.72;;;7.40;;
20040;SDS011;10181;48.072;9.884;2022-09-13T15:36:35;6.72;;;6.53;;
20040;SDS011;10181;48.072;9.884;2022-09-13T15:39:03;5.93;;;5.78;;
20040;SDS011;10181;48.072;9.884;2022-09-13T15:41:38;6.75;;;6.35;;
20040;SDS011;10181;48.072;9.884;2022-09-13T15:44:06;6.93;;;6.72;;
20040;SDS011;10181;48.072;9.884;2022-09-13T15:46:36;8.20;;;7.95;;
20040;SDS011;10181;48.072;9.884;2022-09-13T15:49:17;7.72;;;7.53;;
20040;SDS011;10181;48.072;9.884;2022-09-13T15:51:44;7.20;;;7.00;;
20040;SDS011;10181;48.072;9.884;2022-09-13T15:54:11;6.82;;;6.63;;
20040;SDS011;10181;48.072;9.884;2022-09-13T15:56:37;6.35;;;6.15;;
20040;SDS011;10181;48.072;9.884;2022-09-13T15:59:07;6.22;;;6.13;;
20040;SDS011;10181;48.072;9.884;2022-09-13T16:01:36;9.95;;;9.65;;
20040;SDS011;10181;48.072;9.884;2022-09-13T16:04:02;10.00;;;9.70;;
20040;SDS011;10181;48.072;9.884;2022-09-13T16:06:28;10.23;;;9.93;;
20040;SDS011;10181;48.072;9.884;2022-09-13T16:08:54;10.23;;;9.93;;
20040;SDS011;10181;48.072;9.884;2022-09-13T16:11:19;10.57;;;10.27;;
20040;SDS011;10181;48.072;9.884;2022-09-13T16:13:45;8.40;;;8.20;;
20040;SDS011;10181;48.072;9.884;2022-09-13T16:16:13;9.80;;;9.55;;
20040;SDS011;10181;48.072;9.884;2022-09-13T16:18:39;10.07;;;9.77;;
20040;SDS011;10181;48.072;9.884;2022-09-13T16:21:04;9.57;;;9.38;;
20040;SDS011;10181;48.072;9.884;2022-09-13T16:23:30;8.45;;;8.25;;
20040;SDS011;10181;48.072;9.884;2022-09-13T16:25:56;7.55;;;7.35;;
20040;SDS011;10181;48.072;9.884;2022-09-13T16:28:24;7.82;;;7.63;;
20040;SDS011;10181;48.072;9.884;2022-09-13T16:30:50;7.72;;;7.53;;
20040;SDS011;10181;48.072;9.884;2022-09-13T16:33:16;10.70;;;10.43;;
20040;SDS011;10181;48.072;9.884;2022-09-13T16:35:41;13.65;;;13.20;;
20040;SDS011;10181;48.072;9.884;2022-09-13T16:38:08;16.30;;;15.73;;
20040;SDS011;10181;48.072;9.884;2022-09-13T16:40:34;18.92;;;18.30;;
20040;SDS011;10181;48.072;9.884;2022-09-13T16:43:02;18.80;;;18.27;;
20040;SDS011;10181;48.072;9.884;2022-09-13T16:45:28;18.42;;;17.83;;
20040;SDS011;10181;48.072;9.884;2022-09-13T16:47:53;16.80;;;16.30;;
20040;SDS011;10181;48.072;9.884;2022-09-13T16:50:19;16.20;;;15.70;;
20040;SDS011;10181;48.072;9.884;2022-09-13T16:52:44;11.25;;;10.85;;
20040;SDS011;10181;48.072;9.884;2022-09-13T16:55:10;9.80;;;9.52;;
20040;SDS011;10181;48.072;9.884;2022-09-13T16:57:36;7.45;;;7.25;;
20040;SDS011;10181;48.072;9.884;2022-09-13T17:00:04;8.30;;;8.02;;
20040;SDS011;10181;48.072;9.884;2022-09-13T17:02:33;7.10;;;6.90;;
20040;SDS011;10181;48.072;9.884;2022-09-13T17:04:59;5.07;;;4.88;;
20040;SDS011;10181;48.072;9.884;2022-09-13T17:07:25;5.60;;;5.40;;
20040;SDS011;10181;48.072;9.884;2022-09-13T17:09:51;5.30;;;5.20;;
20040;SDS011;10181;48.072;9.884;2022-09-13T17:12:17;4.57;;;4.47;;
20040;SDS011;10181;48.072;9.884;2022-09-13T17:14:42;5.35;;;5.25;;
20040;SDS011;10181;48.072;9.884;2022-09-13T17:17:11;5.00;;;4.90;;
20040;SDS011;10181;48.072;9.884;2022-09-13T17:19:38;5.38;;;5.18;;
20040;SDS011;10181;48.072;9.884;2022-09-13T17:22:04;7.72;;;7.53;;
20040;SDS011;10181;48.072;9.884;2022-09-13T17:24:32;14.95;;;14.48;;
20040;SDS011;10181;48.072;9.884;2022-09-13T17:26:58;9.88;;;9.60;;
20040;SDS011;10181;48.072;9.884;2022-09-13T17:29:24;16.42;;;15.93;;
20040;SDS011;10181;48.072;9.884;2022-09-13T17:31:54;24.48;;;23.60;;
20040;SDS011;10181;48.072;9.884;2022-09-13T17:34:21;24.63;;;23.80;;
20040;SDS011;10181;48.072;9.884;2022-09-13T17:36:46;29.73;;;28.73;;
20040;SDS011;10181;48.072;9.884;2022-09-13T17:39:12;38.25;;;36.85;;
20040;SDS011;10181;48.072;9.884;2022-09-13T17:41:38;29.92;;;28.92;;
20040;SDS011;10181;48.072;9.884;2022-09-13T17:44:03;16.60;;;16.00;;
20040;SDS011;10181;48.072;9.884;2022-09-13T17:46:29;8.23;;;7.97;;
20040;SDS011;10181;48.072;9.884;2022-09-13T17:48:55;9.45;;;9.15;;
20040;SDS011;10181;48.072;9.884;2022-09-13T17:51:26;6.45;;;6.25;;
20040;SDS011;10181;48.072;9.884;2022-09-13T17:53:54;5.43;;;5.22;;
20040;SDS011;10181;48.072;9.884;2022-09-13T17:56:25;4.72;;;4.63;;
20040;SDS011;10181;48.072;9.884;2022-09-13T17:58:56;4.30;;;4.20;;
20040;SDS011;10181;48.072;9.884;2022-09-13T18:01:27;4.60;;;4.50;;
20040;SDS011;10181;48.072;9.884;2022-09-13T18:03:53;4.82;;;4.68;;
20040;SDS011;10181;48.072;9.884;2022-09-13T18:06:19;4.75;;;4.57;;
20040;SDS011;10181;48.072;9.884;2022-09-13T18:08:45;4.70;;;4.57;;
20040;SDS011;10181;48.072;9.884;2022-09-13T18:11:12;5.32;;;5.13;;
20040;SDS011;10181;48.072;9.884;2022-09-13T18:13:40;4.38;;;4.28;;
20040;SDS011;10181;48.072;9.884;2022-09-13T18:16:09;6.22;;;5.82;;
20040;SDS011;10181;48.072;9.884;2022-09-13T18:18:37;4.53;;;4.32;;
20040;SDS011;10181;48.072;9.884;2022-09-13T18:21:03;5.93;;;5.72;;
20040;SDS011;10181;48.072;9.884;2022-09-13T18:23:30;5.57;;;5.45;;
20040;SDS011;10181;48.072;9.884;2022-09-13T18:25:57;5.68;;;5.47;;
20040;SDS011;10181;48.072;9.884;2022-09-13T18:28:28;5.65;;;5.38;;
20040;SDS011;10181;48.072;9.884;2022-09-13T18:30:55;5.50;;;5.30;;
20040;SDS011;10181;48.072;9.884;2022-09-13T18:33:22;4.10;;;4.00;;
20040;SDS011;10181;48.072;9.884;2022-09-13T18:35:55;3.35;;;3.25;;
20040;SDS011;10181;48.072;9.884;2022-09-13T18:38:36;3.92;;;3.65;;
20040;SDS011;10181;48.072;9.884;2022-09-13T18:41:04;3.53;;;3.42;;
20040;SDS011;10181;48.072;9.884;2022-09-13T18:43:35;3.53;;;3.42;;
20040;SDS011;10181;48.072;9.884;2022-09-13T18:46:03;3.38;;;3.28;;
20040;SDS011;10181;48.072;9.884;2022-09-13T18:48:30;3.60;;;3.50;;
20040;SDS011;10181;48.072;9.884;2022-09-13T18:50:58;3.40;;;3.30;;
20040;SDS011;10181;48.072;9.884;2022-09-13T18:53:24;3.57;;;3.47;;
20040;SDS011;10181;48.072;9.884;2022-09-13T18:55:50;3.55;;;3.45;;